Strona główna
METAR-TAF:

METAR-TAF

Lotnisko :

Marshfield, Massachusetts, Stany Zjednoczone

Szerokość geograficzna: 42-05-54N, Długość geograficzna: 070-40-20W, wysokość: 3 m

Aktualna obserwacja pogody

Raport powstał 19 minut temu, godzina 10:15 UTC
Wiatr 15 kt od południowo-południowy zachód w porywach dochodzący do 23 kt
Temperatura 13°C
Wilgotność 82%
Ciśnienie 1009 hPa
Widzialność: 16.1 km
Mało chmury na wysokości 2000 ft
Mało chmury na wysokości 2900 ft
Przerywane chmury na wysokości 3800 ft

METAR: KGHG 241015Z AUTO 20015G23KT 10SM FEW020 FEW029 BKN038 13/10 A2981 RMK AO2

czas: 05:34 (10:34 UTC)


TAF: brakujący

Obserwacja i prognoza pogody dla ponad 4000 lotnisk (raport METAR i TAF).

Dostępne stacje oznaczono żółtymi i czerwonymi punktami na mapie.

Najedź kursorem aby zobaczyć nazwę stacji.

Kliknij aby zobaczyć obserwacje i prognozy pogody.

Aby zmienić mapę: kliknij na zielony przycisk z czarnym krzyżykiem, aby powiększyć; na zielony przycisk z myślnikiem, aby pomniejszyć; na zielone strzałki, aby przejść do map sąsiednich.


METAR-TAF: